Time;durP1;ratioP1;P1;durP2;ratioP2;P2;SDS_P1;SDS_P2;PMS_P1;PMS_P2;Temp;Humidity;BMP_temperature;BMP_pressure;BME280_temperature;BME280_humidity;BME280_pressure;Samples;Min_cycle;Max_cycle;Signal;HPM_P1;HPM_P2
2024/01/17 00:01:50;;;;;;;6.10;4.20;;;;;;;20.75;26.43;100982.73;103588;1283;63359;-79
2024/01/17 00:04:16;;;;;;;5.60;3.80;;;;;;;20.75;26.34;100983.27;103645;1283;62126;-79
2024/01/17 00:06:41;;;;;;;7.10;4.20;;;;;;;20.75;26.25;100981.99;103702;1285;62293;-80
2024/01/17 00:09:09;;;;;;;5.50;3.70;;;;;;;20.76;26.43;100992.15;103561;1286;62184;-78
2024/01/17 00:11:37;;;;;;;8.00;4.30;;;;;;;20.75;26.32;100991.27;103469;1288;62182;-79
2024/01/17 00:14:03;;;;;;;6.70;4.00;;;;;;;20.75;26.44;100989.83;103638;1286;63458;-78
2024/01/17 00:16:29;;;;;;;7.30;4.50;;;;;;;20.75;26.38;100992.16;103397;1282;62203;-79
2024/01/17 00:18:57;;;;;;;6.60;4.10;;;;;;;20.75;26.30;100990.53;103622;1295;62219;-79
2024/01/17 00:21:23;;;;;;;7.10;4.10;;;;;;;20.76;26.36;100984.63;103361;1282;74297;-78
2024/01/17 00:23:49;;;;;;;7.90;4.30;;;;;;;20.76;26.27;100980.33;103634;1289;62264;-79
2024/01/17 00:26:15;;;;;;;6.70;4.60;;;;;;;20.76;26.29;100979.42;103547;1284;62222;-79
2024/01/17 00:28:41;;;;;;;6.70;4.20;;;;;;;20.76;26.30;100977.62;103559;1283;62268;-79
2024/01/17 00:31:06;;;;;;;6.20;4.20;;;;;;;20.77;26.29;100980.09;103723;1285;62180;-79
2024/01/17 00:33:32;;;;;;;6.50;4.10;;;;;;;20.77;26.26;100984.02;103717;1285;62119;-78
2024/01/17 00:35:58;;;;;;;6.80;4.00;;;;;;;20.76;26.39;100982.27;103705;1286;62181;-79
2024/01/17 00:38:23;;;;;;;5.80;4.00;;;;;;;20.77;26.33;100984.38;103634;1286;62206;-80
2024/01/17 00:40:49;;;;;;;7.90;4.50;;;;;;;20.77;26.28;100984.58;103642;1283;62200;-78
2024/01/17 00:43:15;;;;;;;6.50;3.90;;;;;;;20.77;26.22;100978.67;103607;1285;62287;-78
2024/01/17 00:45:41;;;;;;;5.60;3.90;;;;;;;20.76;26.27;100983.89;103414;1289;63457;-80
2024/01/17 00:48:06;;;;;;;7.60;4.40;;;;;;;20.77;26.31;100986.50;103305;1289;62107;-78
2024/01/17 00:50:32;;;;;;;6.00;4.00;;;;;;;20.78;26.22;100988.08;103617;1283;62203;-77
2024/01/17 00:52:57;;;;;;;7.20;4.30;;;;;;;20.78;26.36;100990.40;103418;1288;62292;-78
2024/01/17 00:55:23;;;;;;;5.60;3.90;;;;;;;20.78;26.31;100989.52;103257;1286;63355;-80
2024/01/17 00:57:49;;;;;;;8.20;4.30;;;;;;;20.77;26.20;100983.27;103537;1286;62309;-80
2024/01/17 01:00:15;;;;;;;7.50;4.30;;;;;;;20.78;26.11;100989.70;103790;1285;62184;-78
2024/01/17 01:02:43;;;;;;;6.30;4.30;;;;;;;20.78;26.24;100987.90;103619;1289;62205;-80
2024/01/17 01:05:11;;;;;;;6.40;3.90;;;;;;;20.78;26.25;100991.64;103772;1286;73397;-79
2024/01/17 01:07:37;;;;;;;5.40;3.90;;;;;;;20.78;26.26;101004.15;104052;1283;75071;-79
2024/01/17 01:10:03;;;;;;;7.10;4.30;;;;;;;20.79;26.27;101003.94;103641;1283;62283;-77
2024/01/17 01:12:28;;;;;;;6.40;4.10;;;;;;;20.79;26.23;100997.31;103744;1285;62177;-79
2024/01/17 01:14:54;;;;;;;6.20;4.20;;;;;;;20.79;26.13;100997.84;103660;1285;63372;-79
2024/01/17 01:17:20;;;;;;;5.70;3.90;;;;;;;20.79;26.29;100993.92;103530;1286;62613;-79
2024/01/17 01:19:45;;;;;;;6.70;4.10;;;;;;;20.80;26.27;100991.35;103721;1286;62082;-79
2024/01/17 01:22:11;;;;;;;5.80;3.90;;;;;;;20.80;26.17;100992.78;103620;1288;62233;-80
2024/01/17 01:24:37;;;;;;;5.50;3.70;;;;;;;20.79;26.21;100989.59;103682;1283;63429;-79
2024/01/17 01:27:03;;;;;;;6.50;4.40;;;;;;;20.80;26.14;100983.67;103675;1295;63247;-77
2024/01/17 01:29:28;;;;;;;6.00;4.00;;;;;;;20.80;26.09;100987.05;103810;1286;62769;-79
2024/01/17 01:31:54;;;;;;;7.00;4.30;;;;;;;20.80;26.08;100978.11;103677;1285;62176;-79
2024/01/17 01:34:20;;;;;;;7.70;4.20;;;;;;;20.80;26.18;100976.31;103581;1290;62287;-79
2024/01/17 01:36:45;;;;;;;6.10;4.20;;;;;;;20.80;26.18;100977.75;103403;1289;62248;-79
2024/01/17 01:39:11;;;;;;;5.80;4.20;;;;;;;20.80;26.14;100968.12;103342;1289;63381;-81
2024/01/17 01:41:37;;;;;;;5.60;4.10;;;;;;;20.80;26.17;100963.80;103368;1287;63316;-78
2024/01/17 01:44:02;;;;;;;7.20;4.20;;;;;;;20.80;26.10;100961.64;103656;1285;62523;-79
2024/01/17 01:46:29;;;;;;;6.30;4.10;;;;;;;20.80;26.18;100963.60;103471;1288;62152;-80
2024/01/17 01:48:54;;;;;;;5.70;3.90;;;;;;;20.80;26.00;100961.66;103743;1286;62190;-81
2024/01/17 01:51:20;;;;;;;7.70;4.10;;;;;;;20.80;26.10;100967.19;103456;1290;72202;-79
2024/01/17 01:53:49;;;;;;;6.50;4.00;;;;;;;20.80;25.93;100971.11;103578;1284;62254;-79
2024/01/17 01:56:17;;;;;;;5.70;4.20;;;;;;;20.80;26.12;100973.99;103558;1289;62365;-80
2024/01/17 01:58:43;;;;;;;5.70;3.90;;;;;;;20.79;25.92;100979.41;103721;1283;62066;-79
2024/01/17 02:01:09;;;;;;;6.50;3.90;;;;;;;20.80;25.85;100978.66;103556;1288;62197;-78
2024/01/17 02:03:35;;;;;;;5.90;4.00;;;;;;;20.79;26.02;100977.26;103593;1286;62133;-79
2024/01/17 02:06:00;;;;;;;6.40;4.30;;;;;;;20.80;26.03;100983.11;103729;1285;62200;-80
2024/01/17 02:08:27;;;;;;;5.70;3.70;;;;;;;20.80;26.07;100983.83;103590;1283;62259;-78
2024/01/17 02:10:53;;;;;;;7.30;4.20;;;;;;;20.80;26.04;100983.66;103552;1296;62110;-81
2024/01/17 02:13:19;;;;;;;7.30;4.30;;;;;;;20.80;25.98;100983.08;103603;1288;62206;-79
2024/01/17 02:15:44;;;;;;;6.00;3.80;;;;;;;20.81;26.03;100987.33;103536;1283;75249;-81
2024/01/17 02:18:10;;;;;;;6.30;4.20;;;;;;;20.80;25.96;100993.11;103605;1296;62290;-78
2024/01/17 02:20:36;;;;;;;6.20;4.10;;;;;;;20.81;25.91;100994.50;103643;1283;62594;-79
2024/01/17 02:23:02;;;;;;;5.60;4.20;;;;;;;20.80;25.92;100990.27;103647;1285;62777;-80
2024/01/17 02:25:28;;;;;;;6.10;4.00;;;;;;;20.80;25.97;100986.66;103695;1286;62222;-78
2024/01/17 02:27:54;;;;;;;6.90;4.10;;;;;;;20.81;25.83;100982.33;103682;1286;62892;-80
2024/01/17 02:30:19;;;;;;;5.80;4.00;;;;;;;20.80;25.92;100978.59;103617;1286;63364;-78
2024/01/17 02:32:45;;;;;;;5.90;4.10;;;;;;;20.81;26.02;100978.05;103659;1284;62676;-80
2024/01/17 02:35:11;;;;;;;6.30;4.10;;;;;;;20.80;25.91;100972.17;103377;1289;62248;-79
2024/01/17 02:37:36;;;;;;;6.10;4.10;;;;;;;20.80;25.91;100972.56;103538;1283;62257;-77
2024/01/17 02:40:02;;;;;;;7.70;4.10;;;;;;;20.80;25.82;100970.02;103662;1285;62885;-81
2024/01/17 02:42:28;;;;;;;6.10;4.20;;;;;;;20.81;25.88;100967.86;103592;1283;63364;-79
2024/01/17 02:44:53;;;;;;;6.60;4.20;;;;;;;20.80;25.81;100963.23;103656;1285;62468;-78
2024/01/17 02:47:19;;;;;;;6.30;4.20;;;;;;;20.80;25.86;100958.04;103709;1282;72262;-79
2024/01/17 02:49:45;;;;;;;5.80;3.90;;;;;;;20.81;25.94;100959.06;103431;1286;64068;-78
2024/01/17 02:52:11;;;;;;;7.30;4.50;;;;;;;20.81;25.84;100952.62;103579;1286;63391;-78
2024/01/17 02:54:37;;;;;;;5.60;3.80;;;;;;;20.81;25.76;100950.28;103617;1286;63450;-79
2024/01/17 02:57:03;;;;;;;7.00;4.30;;;;;;;20.81;26.02;100952.06;103734;1286;62182;-79
2024/01/17 02:59:28;;;;;;;6.50;4.30;;;;;;;20.81;25.91;100951.34;103686;1282;62181;-78
2024/01/17 03:01:54;;;;;;;6.20;3.90;;;;;;;20.81;25.81;100951.33;103270;1290;62300;-79
2024/01/17 03:04:20;;;;;;;5.70;4.10;;;;;;;20.81;25.94;100950.29;103599;1286;63165;-80
2024/01/17 03:06:50;;;;;;;5.90;3.70;;;;;;;20.82;25.84;100957.39;103438;1286;62542;-79
2024/01/17 03:09:16;;;;;;;6.80;4.50;;;;;;;20.82;25.93;100960.59;103407;1288;72389;-78
2024/01/17 03:11:41;;;;;;;6.00;4.30;;;;;;;20.82;25.88;100962.02;103603;1283;62174;-78
2024/01/17 03:14:07;;;;;;;6.60;4.40;;;;;;;20.82;25.77;100963.43;103535;1283;63398;-79
2024/01/17 03:16:33;;;;;;;6.00;3.90;;;;;;;20.83;25.81;100962.89;103818;1286;63398;-80
2024/01/17 03:18:59;;;;;;;6.90;4.30;;;;;;;20.83;25.82;100966.98;103574;1285;63557;-79
2024/01/17 03:21:25;;;;;;;6.40;4.10;;;;;;;20.84;25.78;100972.47;103610;1288;62766;-79
2024/01/17 03:23:50;;;;;;;6.70;4.30;;;;;;;20.83;25.82;100967.86;103719;1288;75204;-78
2024/01/17 03:26:18;;;;;;;7.20;4.20;;;;;;;20.84;25.85;100968.15;103660;1282;62243;-79
2024/01/17 03:28:44;;;;;;;5.80;4.20;;;;;;;20.85;25.75;100973.13;103670;1283;62114;-80
2024/01/17 03:31:10;;;;;;;6.20;4.20;;;;;;;20.84;25.80;100973.88;103687;1285;62167;-78
2024/01/17 03:33:35;;;;;;;5.60;3.60;;;;;;;20.84;25.74;100972.78;103519;1286;63353;-79
2024/01/17 03:36:01;;;;;;;5.80;4.10;;;;;;;20.85;25.73;100968.48;103752;1285;62200;-80
2024/01/17 03:38:27;;;;;;;6.10;4.00;;;;;;;20.84;25.84;100965.98;103716;1283;62170;-78
2024/01/17 03:40:55;;;;;;;6.20;4.00;;;;;;;20.85;25.65;100965.59;103650;1283;63506;-78
2024/01/17 03:43:21;;;;;;;6.90;4.00;;;;;;;20.84;25.79;100964.24;103668;1284;72581;-78
2024/01/17 03:45:49;;;;;;;5.40;3.70;;;;;;;20.85;25.73;100966.85;103333;1283;75151;-79
2024/01/17 03:48:15;;;;;;;6.60;4.00;;;;;;;20.84;25.69;100965.45;103602;1288;62099;-79
2024/01/17 03:50:40;;;;;;;5.60;4.00;;;;;;;20.85;25.66;100970.80;103394;1288;62271;-79
2024/01/17 03:53:07;;;;;;;6.40;4.20;;;;;;;20.85;25.72;100972.23;103696;1286;62261;-78
2024/01/17 03:55:33;;;;;;;6.40;4.20;;;;;;;20.85;25.57;100973.30;103696;1285;63319;-81
2024/01/17 03:57:59;;;;;;;6.20;4.10;;;;;;;20.85;25.70;100975.43;103706;1283;62117;-78
2024/01/17 04:00:25;;;;;;;6.90;4.00;;;;;;;20.85;25.76;100977.39;103689;1285;62098;-79
2024/01/17 04:02:51;;;;;;;6.60;4.10;;;;;;;20.86;25.73;100983.05;103725;1286;62283;-80
2024/01/17 04:05:19;;;;;;;6.90;4.10;;;;;;;20.86;25.59;100978.39;103559;1286;62442;-79
2024/01/17 04:07:45;;;;;;;5.60;3.90;;;;;;;20.86;25.67;100978.95;103646;1289;75349;-78
2024/01/17 04:10:11;;;;;;;6.50;4.40;;;;;;;20.85;25.65;100978.80;103539;1286;62257;-80
2024/01/17 04:12:38;;;;;;;5.60;4.10;;;;;;;20.86;25.64;100975.38;103787;1285;62740;-81
2024/01/17 04:15:05;;;;;;;6.40;4.10;;;;;;;20.86;25.61;100968.73;103728;1285;62508;-79
2024/01/17 04:17:31;;;;;;;7.60;4.30;;;;;;;20.86;25.59;100965.67;103676;1283;75310;-80
2024/01/17 04:19:57;;;;;;;7.00;4.40;;;;;;;20.86;25.61;100968.89;103559;1290;62117;-79
2024/01/17 04:22:23;;;;;;;6.40;4.60;;;;;;;20.86;25.63;100973.36;103548;1286;62626;-79
2024/01/17 04:24:48;;;;;;;6.20;4.20;;;;;;;20.87;25.64;100970.67;103341;1288;62205;-80
2024/01/17 04:27:15;;;;;;;6.40;4.50;;;;;;;20.87;25.62;100975.13;103524;1286;62091;-80
2024/01/17 04:29:41;;;;;;;6.70;4.50;;;;;;;20.87;25.57;100979.42;103542;1286;62669;-81
2024/01/17 04:32:06;;;;;;;7.00;4.70;;;;;;;20.87;25.50;100987.65;103729;1284;62258;-77
2024/01/17 04:34:32;;;;;;;7.10;4.40;;;;;;;20.87;25.48;100990.52;103482;1288;62267;-79
2024/01/17 04:36:58;;;;;;;6.10;4.20;;;;;;;20.86;25.53;100995.91;103658;1285;62108;-78
2024/01/17 04:39:24;;;;;;;6.30;4.30;;;;;;;20.86;25.57;101000.73;103381;1288;62264;-80
2024/01/17 04:41:50;;;;;;;8.50;5.10;;;;;;;20.87;25.53;101000.31;103235;1284;62182;-79
2024/01/17 04:44:16;;;;;;;6.90;4.40;;;;;;;20.87;25.46;100994.95;103552;1283;62193;-78
2024/01/17 04:46:42;;;;;;;6.90;4.80;;;;;;;20.86;25.47;100995.55;103827;1283;62226;-80
2024/01/17 04:49:08;;;;;;;7.90;4.70;;;;;;;20.86;25.48;100996.29;103612;1286;62283;-79
2024/01/17 04:51:33;;;;;;;6.40;4.60;;;;;;;20.86;25.56;100994.48;103563;1283;76378;-79
2024/01/17 04:53:59;;;;;;;8.20;5.10;;;;;;;20.86;25.41;100995.05;103718;1285;62201;-77
2024/01/17 04:56:26;;;;;;;7.60;5.20;;;;;;;20.86;25.48;101002.39;103459;1283;62696;-77
2024/01/17 04:58:53;;;;;;;8.00;5.20;;;;;;;20.85;25.39;101006.73;103733;1285;63706;-80
2024/01/17 05:01:19;;;;;;;7.50;5.10;;;;;;;20.84;25.41;101014.64;103919;1283;62177;-80
2024/01/17 05:03:45;;;;;;;7.60;5.00;;;;;;;20.85;25.27;101026.60;104201;1283;62184;-78
2024/01/17 05:06:11;;;;;;;7.20;4.90;;;;;;;20.85;25.40;101021.77;103755;1283;62706;-78
2024/01/17 05:08:36;;;;;;;8.30;5.00;;;;;;;20.85;25.43;101021.90;104124;1283;62578;-77
2024/01/17 05:11:02;;;;;;;8.20;4.80;;;;;;;20.85;25.39;101023.89;104204;1283;62117;-78
2024/01/17 05:13:28;;;;;;;6.30;4.70;;;;;;;20.86;25.27;101022.98;104029;1283;62232;-77
2024/01/17 05:15:53;;;;;;;6.80;4.70;;;;;;;20.86;25.23;101021.73;104053;1288;62136;-77
2024/01/17 05:18:19;;;;;;;7.30;4.70;;;;;;;20.85;25.27;101022.80;103782;1283;62131;-78
2024/01/17 05:20:45;;;;;;;10.20;5.30;;;;;;;20.86;25.27;101024.36;103659;1281;62782;-78
2024/01/17 05:23:12;;;;;;;7.50;4.90;;;;;;;20.87;25.24;101026.79;103855;1286;62111;-79
2024/01/17 05:25:38;;;;;;;6.90;4.90;;;;;;;20.88;25.23;101024.27;103421;1283;62293;-79
2024/01/17 05:28:06;;;;;;;7.70;5.00;;;;;;;20.88;25.20;101020.50;103756;1285;62262;-77
2024/01/17 05:30:32;;;;;;;8.00;4.90;;;;;;;20.88;25.23;101016.16;104153;1282;62270;-79
2024/01/17 05:32:58;;;;;;;7.90;4.80;;;;;;;20.88;25.29;101016.89;104610;1281;62657;-77
2024/01/17 05:35:23;;;;;;;7.50;4.90;;;;;;;20.88;25.25;101015.33;103928;1285;62143;-78
2024/01/17 05:37:49;;;;;;;7.10;4.90;;;;;;;20.87;25.08;101021.61;104639;1282;62178;-78
2024/01/17 05:40:15;;;;;;;8.10;5.00;;;;;;;20.86;25.16;101031.70;104376;1283;62209;-77
2024/01/17 05:42:42;;;;;;;7.00;4.70;;;;;;;20.84;25.18;101044.74;104686;1282;72445;-82
2024/01/17 05:45:08;;;;;;;7.70;5.50;;;;;;;20.81;25.16;101054.77;105222;1281;75268;-79
2024/01/17 05:47:35;;;;;;;9.50;5.60;;;;;;;20.76;25.01;101052.76;104890;1282;62813;-80
2024/01/17 05:50:03;;;;;;;10.70;6.50;;;;;;;20.72;25.02;101052.13;105832;1283;62123;-79
2024/01/17 05:52:28;;;;;;;8.90;5.70;;;;;;;20.66;24.89;101053.02;104875;1281;72317;-80
2024/01/17 05:54:54;;;;;;;10.10;6.50;;;;;;;20.60;24.83;101059.88;105295;1282;62318;-81
2024/01/17 05:57:19;;;;;;;11.20;6.70;;;;;;;20.53;24.71;101063.53;105177;1283;62123;-81
2024/01/17 05:59:45;;;;;;;15.90;7.40;;;;;;;20.47;24.73;101066.95;105419;1282;62058;-79
2024/01/17 06:02:11;;;;;;;14.00;7.10;;;;;;;20.41;24.60;101072.54;105284;1282;62217;-80
2024/01/17 06:04:37;;;;;;;14.70;7.40;;;;;;;20.35;24.72;101073.25;105434;1283;61960;-81
2024/01/17 06:07:03;;;;;;;17.90;7.70;;;;;;;20.30;24.52;101077.35;105308;1283;76444;-79
2024/01/17 06:09:28;;;;;;;12.20;7.80;;;;;;;20.25;24.62;101081.37;105756;1282;61387;-78
2024/01/17 06:11:55;;;;;;;17.40;7.90;;;;;;;20.21;24.52;101078.22;105481;1282;62022;-80
2024/01/17 06:14:20;;;;;;;16.40;10.50;;;;;;;20.18;24.62;101073.41;105324;1283;62157;-78
2024/01/17 06:16:47;;;;;;;17.70;9.40;;;;;;;20.16;24.44;101069.60;105406;1284;62621;-79
2024/01/17 06:19:14;;;;;;;23.70;12.30;;;;;;;20.16;24.56;101070.17;105451;1280;62024;-78
2024/01/17 06:21:40;;;;;;;26.40;14.30;;;;;;;20.15;24.35;101071.09;105531;1282;60721;-79
2024/01/17 06:24:05;;;;;;;27.90;14.10;;;;;;;20.15;24.41;101068.65;105305;1285;62097;-81
2024/01/17 06:26:31;;;;;;;31.80;14.90;;;;;;;20.13;24.67;101062.69;105342;1282;62077;-82
2024/01/17 06:28:57;;;;;;;31.00;15.20;;;;;;;20.09;24.80;101064.68;105304;1283;60233;-78
2024/01/17 06:31:25;;;;;;;34.10;17.10;;;;;;;20.05;25.04;101063.52;105326;1282;62072;-78
2024/01/17 06:33:54;;;;;;;30.80;16.50;;;;;;;20.00;25.10;101064.35;105000;1283;60825;-79
2024/01/17 06:36:20;;;;;;;27.80;16.00;;;;;;;19.97;25.40;101060.83;104903;1280;72431;-77
2024/01/17 06:38:46;;;;;;;28.00;14.90;;;;;;;19.94;25.82;101052.95;105287;1282;61937;-79
2024/01/17 06:41:12;;;;;;;24.90;14.10;;;;;;;19.91;26.35;101052.76;105080;1283;62171;-80
2024/01/17 06:43:38;;;;;;;22.20;13.80;;;;;;;19.88;26.74;101051.56;105386;1282;62085;-80
2024/01/17 06:46:04;;;;;;;21.30;13.50;;;;;;;19.83;26.92;101050.60;105229;1283;74179;-80
2024/01/17 06:48:30;;;;;;;21.30;12.90;;;;;;;19.79;27.08;101061.88;105085;1285;62094;-79
2024/01/17 06:50:56;;;;;;;22.40;13.00;;;;;;;19.75;26.93;101062.13;104887;1281;62194;-80
2024/01/17 06:53:22;;;;;;;19.10;12.80;;;;;;;19.71;26.88;101062.92;105122;1283;62200;-79
2024/01/17 06:55:50;;;;;;;18.70;10.10;;;;;;;19.66;26.83;101057.71;104843;1282;62072;-79
2024/01/17 06:58:16;;;;;;;20.90;9.70;;;;;;;19.62;27.08;101049.56;104830;1280;72605;-80
2024/01/17 07:00:43;;;;;;;24.90;9.80;;;;;;;19.59;27.34;101044.35;104977;1283;62213;-81
2024/01/17 07:03:09;;;;;;;15.20;9.60;;;;;;;19.56;27.42;101044.19;105053;1282;62124;-80
2024/01/17 07:05:34;;;;;;;26.40;11.00;;;;;;;19.52;27.52;101042.60;104990;1282;62101;-79
2024/01/17 07:08:00;;;;;;;16.90;10.70;;;;;;;19.51;27.31;101038.60;105110;1282;63437;-79
2024/01/17 07:10:25;;;;;;;17.70;10.00;;;;;;;19.53;27.34;101046.84;104839;1282;62317;-79
2024/01/17 07:12:51;;;;;;;20.80;9.60;;;;;;;19.57;27.13;101049.80;105301;1281;62873;-78
2024/01/17 07:15:17;;;;;;;21.30;9.80;;;;;;;19.62;27.10;101050.04;105025;1281;63252;-78
2024/01/17 07:17:43;;;;;;;19.00;9.70;;;;;;;19.68;27.15;101049.88;104901;1283;62259;-78
2024/01/17 07:20:13;;;;;;;16.80;9.70;;;;;;;19.74;27.04;101053.08;104599;1282;62302;-77
2024/01/17 07:22:42;;;;;;;16.30;9.10;;;;;;;19.81;26.96;101057.18;105430;1282;76845;-79
2024/01/17 07:25:10;;;;;;;27.40;9.00;;;;;;;19.85;27.13;101057.98;104485;1282;62100;-78
2024/01/17 07:27:38;;;;;;;20.80;9.40;;;;;;;19.90;27.17;101053.55;104681;1283;62094;-78
2024/01/17 07:30:05;;;;;;;17.70;9.40;;;;;;;19.95;27.26;101055.95;104476;1281;73495;-78
2024/01/17 07:32:31;;;;;;;29.60;9.70;;;;;;;19.99;27.28;101048.89;104933;1285;76332;-77
2024/01/17 07:34:57;;;;;;;23.80;8.90;;;;;;;20.02;27.30;101043.50;104513;1283;62210;-80
2024/01/17 07:37:22;;;;;;;24.90;9.10;;;;;;;20.06;27.37;101041.13;104665;1281;62115;-78
2024/01/17 07:39:48;;;;;;;19.60;9.00;;;;;;;20.09;27.33;101036.80;104853;1285;60525;-81
2024/01/17 07:42:14;;;;;;;17.00;8.60;;;;;;;20.12;27.29;101038.42;105053;1282;62196;-80
2024/01/17 07:44:40;;;;;;;16.20;8.10;;;;;;;20.11;27.34;101036.02;105017;1280;62142;-79
2024/01/17 07:47:06;;;;;;;18.20;9.20;;;;;;;20.08;27.67;101037.07;105091;1280;60250;-79
2024/01/17 07:49:38;;;;;;;20.90;9.90;;;;;;;20.05;27.62;101031.55;105150;1282;62104;-79
2024/01/17 07:52:05;;;;;;;22.30;10.50;;;;;;;20.00;27.57;101029.51;105059;1283;73669;-81
2024/01/17 07:54:32;;;;;;;30.90;10.90;;;;;;;19.96;27.64;101022.98;105164;1282;73009;-79
2024/01/17 07:56:58;;;;;;;22.60;12.50;;;;;;;19.92;27.65;101024.48;105060;1282;62197;-80
2024/01/17 07:59:24;;;;;;;23.20;11.80;;;;;;;19.86;27.72;101025.02;104959;1282;62200;-79
2024/01/17 08:01:50;;;;;;;24.60;13.40;;;;;;;19.81;27.72;101016.80;105187;1281;62119;-80
2024/01/17 08:04:16;;;;;;;25.50;11.80;;;;;;;19.74;27.65;101011.98;104920;1281;62188;-78
2024/01/17 08:06:46;;;;;;;25.70;13.00;;;;;;;19.70;28.05;101019.90;104753;1282;62242;-77
2024/01/17 08:09:20;;;;;;;27.90;12.30;;;;;;;19.70;28.19;101021.33;104693;1282;62064;-80
2024/01/17 08:11:48;;;;;;;23.40;13.10;;;;;;;19.73;28.39;101022.23;104901;1282;72334;-77
2024/01/17 08:14:15;;;;;;;27.00;12.80;;;;;;;19.77;28.50;101026.66;105115;1282;75397;-79
2024/01/17 08:16:40;;;;;;;23.80;12.80;;;;;;;19.80;28.52;101026.66;104905;1283;62155;-77
2024/01/17 08:19:06;;;;;;;23.20;12.30;;;;;;;19.84;28.59;101033.39;105047;1281;61986;-79
2024/01/17 08:21:32;;;;;;;24.90;12.50;;;;;;;19.89;28.50;101031.61;104951;1282;62810;-80
2024/01/17 08:23:59;;;;;;;24.40;12.40;;;;;;;19.93;28.56;101033.89;104756;1283;62185;-79
2024/01/17 08:26:25;;;;;;;25.90;12.00;;;;;;;19.98;28.62;101030.21;104774;1282;62198;-80
2024/01/17 08:28:51;;;;;;;22.70;11.40;;;;;;;20.01;28.53;101019.13;104752;1288;62261;-77
2024/01/17 08:31:17;;;;;;;21.60;11.10;;;;;;;20.04;28.59;101013.89;104978;1283;62011;-79
2024/01/17 08:33:43;;;;;;;25.30;11.00;;;;;;;20.07;28.51;101007.84;105063;1282;62246;-78
2024/01/17 08:36:08;;;;;;;20.90;11.40;;;;;;;20.10;28.50;101008.72;104698;1282;62223;-78
2024/01/17 08:38:35;;;;;;;23.00;11.00;;;;;;;20.12;28.60;101011.30;105106;1284;62114;-79
2024/01/17 08:41:00;;;;;;;18.60;10.30;;;;;;;20.15;28.75;101011.13;104847;1283;62078;-79
2024/01/17 08:43:26;;;;;;;25.00;11.10;;;;;;;20.17;28.73;101017.91;104874;1285;62193;-79
2024/01/17 08:45:52;;;;;;;22.40;11.20;;;;;;;20.20;28.80;101018.99;104736;1282;60271;-77
2024/01/17 08:48:17;;;;;;;18.70;10.10;;;;;;;20.22;28.89;101022.40;104885;1282;62178;-77
2024/01/17 08:50:43;;;;;;;24.00;10.20;;;;;;;20.25;28.95;101025.11;105317;1282;62066;-78
2024/01/17 08:53:10;;;;;;;18.30;11.10;;;;;;;20.26;28.94;101020.19;105549;1282;60598;-80
2024/01/17 08:55:36;;;;;;;22.50;11.20;;;;;;;20.28;28.92;101019.73;105349;1285;72820;-80
2024/01/17 08:58:02;;;;;;;25.20;11.80;;;;;;;20.25;29.33;101021.89;105325;1281;62158;-81
2024/01/17 09:00:27;;;;;;;29.80;10.80;;;;;;;20.20;29.62;101028.64;105192;1282;62206;-80
2024/01/17 09:02:53;;;;;;;28.40;10.70;;;;;;;20.16;30.05;101025.83;105656;1282;62124;-79
2024/01/17 09:05:20;;;;;;;25.60;11.20;;;;;;;20.14;30.38;101025.64;105158;1283;62171;-79
2024/01/17 09:07:48;;;;;;;20.70;10.80;;;;;;;20.13;30.40;101031.19;105410;1282;62050;-78
2024/01/17 09:10:17;;;;;;;20.50;10.00;;;;;;;20.14;30.46;101025.98;105486;1282;60464;-80
2024/01/17 09:12:43;;;;;;;21.70;10.70;;;;;;;20.15;30.71;101017.15;104985;1282;62194;-78
2024/01/17 09:15:09;;;;;;;24.80;10.00;;;;;;;20.15;30.60;101009.08;105429;1282;59980;-78
2024/01/17 09:17:35;;;;;;;23.50;10.20;;;;;;;20.16;30.76;101008.70;105570;1283;62110;-80
2024/01/17 09:20:01;;;;;;;24.50;11.00;;;;;;;20.17;30.82;101000.27;105383;1283;60546;-79
2024/01/17 09:22:26;;;;;;;22.50;9.90;;;;;;;20.17;31.02;100991.84;105745;1282;62277;-79
2024/01/17 09:24:52;;;;;;;25.50;10.30;;;;;;;20.17;31.06;100991.81;105480;1282;62187;-80
2024/01/17 09:27:18;;;;;;;19.70;10.00;;;;;;;20.18;31.22;100979.08;105801;1282;60472;-80
2024/01/17 09:29:45;;;;;;;19.50;10.10;;;;;;;20.18;31.17;100978.34;105325;1281;74456;-78
2024/01/17 09:32:12;;;;;;;23.10;11.30;;;;;;;20.19;31.28;100969.75;105379;1282;62127;-79
2024/01/17 09:34:41;;;;;;;25.90;11.80;;;;;;;20.19;31.33;100960.98;105625;1281;64553;-78
2024/01/17 09:37:06;;;;;;;21.50;10.70;;;;;;;20.18;31.34;100950.66;105461;1282;72319;-78
2024/01/17 09:39:32;;;;;;;34.60;11.80;;;;;;;20.18;31.51;100946.56;105544;1282;63218;-78
2024/01/17 09:41:58;;;;;;;28.20;11.80;;;;;;;20.17;31.56;100942.15;105421;1282;62167;-77
2024/01/17 09:44:24;;;;;;;23.50;12.20;;;;;;;20.16;31.61;100930.05;105554;1282;62049;-78
2024/01/17 09:46:50;;;;;;;24.40;12.90;;;;;;;20.16;31.71;100934.55;105762;1283;62095;-80
2024/01/17 09:49:15;;;;;;;26.90;14.00;;;;;;;20.14;31.64;100933.21;105816;1282;60610;-80
2024/01/17 09:51:41;;;;;;;22.90;12.50;;;;;;;20.09;31.31;100928.74;105457;1280;62891;-80
2024/01/17 09:54:07;;;;;;;29.00;14.30;;;;;;;20.03;31.20;100931.25;105808;1282;61953;-80
2024/01/17 09:56:33;;;;;;;27.20;13.20;;;;;;;19.98;31.03;100929.83;105845;1280;62117;-80
2024/01/17 09:59:17;;;;;;;25.50;13.70;;;;;;;19.87;31.23;100924.78;105751;1282;62114;-80
2024/01/17 10:01:44;;;;;;;43.80;13.40;;;;;;;19.80;31.33;100920.01;105841;1283;76600;-79
2024/01/17 10:04:11;;;;;;;31.70;14.90;;;;;;;19.78;31.84;100910.33;105977;1283;61992;-80
2024/01/17 10:06:37;;;;;;;33.70;14.00;;;;;;;19.74;31.57;100905.05;105705;1282;60568;-79
2024/01/17 10:09:03;;;;;;;26.10;12.40;;;;;;;19.68;31.47;100903.81;106032;1283;62670;-79
2024/01/17 10:11:29;;;;;;;29.30;13.40;;;;;;;19.62;31.23;100906.48;105942;1282;60695;-79
2024/01/17 10:13:55;;;;;;;29.00;14.60;;;;;;;19.59;31.19;100910.84;105876;1282;62160;-81
2024/01/17 10:16:20;;;;;;;33.60;14.60;;;;;;;19.54;31.07;100910.78;105427;1281;62822;-79
2024/01/17 10:18:46;;;;;;;31.40;15.00;;;;;;;19.52;31.06;100912.51;105467;1283;62201;-82
2024/01/17 10:21:12;;;;;;;35.60;14.30;;;;;;;19.52;30.85;100911.77;105641;1283;61001;-81
2024/01/17 10:23:38;;;;;;;39.00;14.10;;;;;;;19.52;30.73;100912.88;105768;1285;75328;-82
2024/01/17 10:26:04;;;;;;;29.50;13.40;;;;;;;19.51;30.75;100917.20;105893;1283;60217;-81
2024/01/17 10:28:33;;;;;;;32.30;13.60;;;;;;;19.51;30.78;100912.95;105951;1281;62062;-81
2024/01/17 10:31:01;;;;;;;30.70;13.80;;;;;;;19.51;30.91;100917.05;105815;1283;70582;-78
2024/01/17 10:33:27;;;;;;;38.90;13.50;;;;;;;19.52;30.68;100906.44;106073;1282;75674;-80
2024/01/17 10:35:53;;;;;;;32.50;13.40;;;;;;;19.54;30.80;100895.80;106057;1285;61132;-78
2024/01/17 10:38:18;;;;;;;27.80;12.50;;;;;;;19.56;30.98;100887.07;105767;1283;62139;-78
2024/01/17 10:40:44;;;;;;;30.40;13.00;;;;;;;19.58;30.91;100888.56;105801;1283;61066;-80
2024/01/17 10:43:13;;;;;;;26.80;13.40;;;;;;;19.59;30.71;100886.69;105556;1283;62140;-80
2024/01/17 10:45:39;;;;;;;25.90;12.30;;;;;;;19.61;30.87;100881.94;105770;1282;60698;-79
2024/01/17 10:48:09;;;;;;;22.70;12.70;;;;;;;19.62;30.92;100864.58;105698;1283;62133;-80
2024/01/17 10:50:34;;;;;;;26.90;13.10;;;;;;;19.62;31.06;100850.66;105838;1282;72579;-79
2024/01/17 10:53:05;;;;;;;30.00;12.00;;;;;;;19.60;30.89;100848.42;105831;1283;61929;-80
2024/01/17 10:55:33;;;;;;;29.50;12.20;;;;;;;19.60;31.06;100842.02;105672;1283;60427;-80
2024/01/17 10:57:59;;;;;;;;;;;;;;;19.60;31.20;100847.36;106805;1282;61107;-80
2024/01/17 11:00:32;;;;;;;28.00;12.00;;;;;;;19.52;31.05;100858.55;106545;1281;59919;-81
2024/01/17 11:03:02;;;;;;;31.90;14.40;;;;;;;19.50;30.94;100850.85;106644;1281;75068;-79
2024/01/17 11:05:30;;;;;;;31.30;14.40;;;;;;;19.44;30.80;100843.05;106300;1282;59551;-80
2024/01/17 11:07:55;;;;;;;35.20;14.00;;;;;;;19.26;30.41;100833.65;106661;1282;61531;-78